sensor_id;sensor_type;location;lat;lon;timestamp;P1;durP1;ratioP1;P2;durP2;ratioP2
20623;SDS011;10471;42.736;23.346;2023-07-31T00:00:50;8.20;;;5.20;;
20623;SDS011;10471;42.736;23.346;2023-07-31T00:03:15;5.70;;;4.90;;
20623;SDS011;10471;42.736;23.346;2023-07-31T00:05:41;5.43;;;4.93;;
20623;SDS011;10471;42.736;23.346;2023-07-31T00:08:06;6.50;;;5.00;;
20623;SDS011;10471;42.736;23.346;2023-07-31T00:10:31;5.47;;;4.80;;
20623;SDS011;10471;42.736;23.346;2023-07-31T00:12:58;5.73;;;5.20;;
20623;SDS011;10471;42.736;23.346;2023-07-31T00:15:24;5.33;;;4.80;;
20623;SDS011;10471;42.736;23.346;2023-07-31T00:17:49;5.27;;;4.77;;
20623;SDS011;10471;42.736;23.346;2023-07-31T00:20:15;13.67;;;5.00;;
20623;SDS011;10471;42.736;23.346;2023-07-31T00:22:40;6.07;;;4.87;;
20623;SDS011;10471;42.736;23.346;2023-07-31T00:25:05;4.83;;;4.43;;
20623;SDS011;10471;42.736;23.346;2023-07-31T00:27:31;5.03;;;4.63;;
20623;SDS011;10471;42.736;23.346;2023-07-31T00:29:57;5.27;;;4.73;;
20623;SDS011;10471;42.736;23.346;2023-07-31T00:32:22;5.63;;;5.13;;
20623;SDS011;10471;42.736;23.346;2023-07-31T00:34:48;5.70;;;5.20;;
20623;SDS011;10471;42.736;23.346;2023-07-31T00:37:13;6.70;;;5.50;;
20623;SDS011;10471;42.736;23.346;2023-07-31T00:39:40;6.00;;;5.40;;
20623;SDS011;10471;42.736;23.346;2023-07-31T00:42:06;5.80;;;5.30;;
20623;SDS011;10471;42.736;23.346;2023-07-31T00:44:31;5.87;;;5.30;;
20623;SDS011;10471;42.736;23.346;2023-07-31T00:46:57;6.37;;;5.73;;
20623;SDS011;10471;42.736;23.346;2023-07-31T00:49:24;6.07;;;5.17;;
20623;SDS011;10471;42.736;23.346;2023-07-31T00:51:50;7.57;;;6.47;;
20623;SDS011;10471;42.736;23.346;2023-07-31T00:54:15;9.73;;;6.07;;
20623;SDS011;10471;42.736;23.346;2023-07-31T00:56:41;6.93;;;6.27;;
20623;SDS011;10471;42.736;23.346;2023-07-31T00:59:09;7.20;;;6.50;;
20623;SDS011;10471;42.736;23.346;2023-07-31T01:01:34;6.83;;;6.20;;
20623;SDS011;10471;42.736;23.346;2023-07-31T01:04:00;7.50;;;6.80;;
20623;SDS011;10471;42.736;23.346;2023-07-31T01:06:29;8.37;;;7.23;;
20623;SDS011;10471;42.736;23.346;2023-07-31T01:09:07;7.60;;;6.90;;
20623;SDS011;10471;42.736;23.346;2023-07-31T01:12:01;9.17;;;7.90;;
20623;SDS011;10471;42.736;23.346;2023-07-31T01:14:28;8.80;;;7.87;;
20623;SDS011;10471;42.736;23.346;2023-07-31T01:16:54;9.33;;;8.33;;
20623;SDS011;10471;42.736;23.346;2023-07-31T01:19:21;9.43;;;8.40;;
20623;SDS011;10471;42.736;23.346;2023-07-31T01:24:51;10.00;;;8.83;;
20623;SDS011;10471;42.736;23.346;2023-07-31T01:27:15;10.50;;;9.43;;
20623;SDS011;10471;42.736;23.346;2023-07-31T01:29:52;10.83;;;9.73;;
20623;SDS011;10471;42.736;23.346;2023-07-31T01:32:24;11.67;;;10.57;;
20623;SDS011;10471;42.736;23.346;2023-07-31T01:34:50;13.43;;;11.57;;
20623;SDS011;10471;42.736;23.346;2023-07-31T01:37:17;13.70;;;12.17;;
20623;SDS011;10471;42.736;23.346;2023-07-31T01:39:43;15.20;;;13.60;;
20623;SDS011;10471;42.736;23.346;2023-07-31T01:42:08;16.37;;;14.67;;
20623;SDS011;10471;42.736;23.346;2023-07-31T01:44:33;16.20;;;14.50;;
20623;SDS011;10471;42.736;23.346;2023-07-31T01:46:59;18.13;;;16.23;;
20623;SDS011;10471;42.736;23.346;2023-07-31T01:49:25;19.83;;;17.27;;
20623;SDS011;10471;42.736;23.346;2023-07-31T01:51:50;19.33;;;16.03;;
20623;SDS011;10471;42.736;23.346;2023-07-31T01:54:16;20.47;;;17.97;;
20623;SDS011;10471;42.736;23.346;2023-07-31T01:56:41;26.53;;;18.53;;
20623;SDS011;10471;42.736;23.346;2023-07-31T01:59:07;20.23;;;17.53;;
20623;SDS011;10471;42.736;23.346;2023-07-31T02:01:32;19.27;;;17.00;;
20623;SDS011;10471;42.736;23.346;2023-07-31T02:03:57;19.27;;;17.17;;
20623;SDS011;10471;42.736;23.346;2023-07-31T02:06:23;20.10;;;18.00;;
20623;SDS011;10471;42.736;23.346;2023-07-31T02:08:48;21.53;;;18.40;;
20623;SDS011;10471;42.736;23.346;2023-07-31T02:11:14;21.93;;;19.53;;
20623;SDS011;10471;42.736;23.346;2023-07-31T02:13:39;22.17;;;19.80;;
20623;SDS011;10471;42.736;23.346;2023-07-31T02:16:05;23.17;;;19.53;;
20623;SDS011;10471;42.736;23.346;2023-07-31T02:18:30;24.57;;;19.73;;
20623;SDS011;10471;42.736;23.346;2023-07-31T02:20:56;25.67;;;21.03;;
20623;SDS011;10471;42.736;23.346;2023-07-31T02:23:21;25.07;;;22.37;;
20623;SDS011;10471;42.736;23.346;2023-07-31T02:25:46;25.33;;;22.17;;
20623;SDS011;10471;42.736;23.346;2023-07-31T02:28:12;26.70;;;22.90;;
20623;SDS011;10471;42.736;23.346;2023-07-31T02:30:37;28.90;;;24.60;;
20623;SDS011;10471;42.736;23.346;2023-07-31T02:33:03;28.67;;;23.87;;
20623;SDS011;10471;42.736;23.346;2023-07-31T02:35:29;27.17;;;23.90;;
20623;SDS011;10471;42.736;23.346;2023-07-31T02:37:55;30.57;;;26.00;;
20623;SDS011;10471;42.736;23.346;2023-07-31T02:40:20;28.67;;;24.73;;
20623;SDS011;10471;42.736;23.346;2023-07-31T02:42:45;29.47;;;25.53;;
20623;SDS011;10471;42.736;23.346;2023-07-31T02:45:11;29.00;;;25.33;;
20623;SDS011;10471;42.736;23.346;2023-07-31T02:47:36;31.50;;;26.10;;
20623;SDS011;10471;42.736;23.346;2023-07-31T02:50:02;28.80;;;25.03;;
20623;SDS011;10471;42.736;23.346;2023-07-31T02:52:28;30.30;;;25.10;;
20623;SDS011;10471;42.736;23.346;2023-07-31T02:54:54;29.60;;;25.67;;
20623;SDS011;10471;42.736;23.346;2023-07-31T02:57:19;28.40;;;24.77;;
20623;SDS011;10471;42.736;23.346;2023-07-31T02:59:45;27.90;;;24.90;;
20623;SDS011;10471;42.736;23.346;2023-07-31T03:02:10;32.00;;;26.40;;
20623;SDS011;10471;42.736;23.346;2023-07-31T03:04:36;31.90;;;26.00;;
20623;SDS011;10471;42.736;23.346;2023-07-31T03:07:01;30.67;;;26.00;;
20623;SDS011;10471;42.736;23.346;2023-07-31T03:09:27;31.50;;;26.30;;
20623;SDS011;10471;42.736;23.346;2023-07-31T03:11:52;30.53;;;26.07;;
20623;SDS011;10471;42.736;23.346;2023-07-31T03:14:18;33.60;;;27.73;;
20623;SDS011;10471;42.736;23.346;2023-07-31T03:16:43;33.60;;;27.30;;
20623;SDS011;10471;42.736;23.346;2023-07-31T03:19:08;30.80;;;27.30;;
20623;SDS011;10471;42.736;23.346;2023-07-31T03:21:34;32.23;;;28.23;;
20623;SDS011;10471;42.736;23.346;2023-07-31T03:23:59;33.53;;;28.47;;
20623;SDS011;10471;42.736;23.346;2023-07-31T03:26:24;32.17;;;27.53;;
20623;SDS011;10471;42.736;23.346;2023-07-31T03:28:50;32.60;;;28.90;;
20623;SDS011;10471;42.736;23.346;2023-07-31T03:31:15;32.83;;;29.13;;
20623;SDS011;10471;42.736;23.346;2023-07-31T03:33:40;36.73;;;28.93;;
20623;SDS011;10471;42.736;23.346;2023-07-31T03:36:06;36.00;;;30.17;;
20623;SDS011;10471;42.736;23.346;2023-07-31T03:38:33;33.27;;;28.97;;
20623;SDS011;10471;42.736;23.346;2023-07-31T03:40:59;34.80;;;29.50;;
20623;SDS011;10471;42.736;23.346;2023-07-31T03:43:24;35.60;;;30.10;;
20623;SDS011;10471;42.736;23.346;2023-07-31T03:45:50;36.07;;;30.77;;
20623;SDS011;10471;42.736;23.346;2023-07-31T03:48:15;35.37;;;30.00;;
20623;SDS011;10471;42.736;23.346;2023-07-31T03:50:41;31.90;;;28.30;;
20623;SDS011;10471;42.736;23.346;2023-07-31T03:53:07;33.47;;;29.03;;
20623;SDS011;10471;42.736;23.346;2023-07-31T03:55:32;37.03;;;29.57;;
20623;SDS011;10471;42.736;23.346;2023-07-31T03:57:57;38.73;;;29.07;;
20623;SDS011;10471;42.736;23.346;2023-07-31T04:00:23;33.97;;;29.60;;
20623;SDS011;10471;42.736;23.346;2023-07-31T04:02:48;36.47;;;30.63;;
20623;SDS011;10471;42.736;23.346;2023-07-31T04:05:14;35.27;;;29.63;;
20623;SDS011;10471;42.736;23.346;2023-07-31T04:07:39;34.53;;;29.73;;
20623;SDS011;10471;42.736;23.346;2023-07-31T04:10:04;33.37;;;29.07;;
20623;SDS011;10471;42.736;23.346;2023-07-31T04:12:30;35.77;;;30.47;;
20623;SDS011;10471;42.736;23.346;2023-07-31T04:14:55;36.87;;;29.90;;
20623;SDS011;10471;42.736;23.346;2023-07-31T04:17:21;36.77;;;30.00;;
20623;SDS011;10471;42.736;23.346;2023-07-31T04:19:46;35.60;;;28.60;;
20623;SDS011;10471;42.736;23.346;2023-07-31T04:22:11;37.43;;;30.80;;
20623;SDS011;10471;42.736;23.346;2023-07-31T04:24:37;36.80;;;30.10;;
20623;SDS011;10471;42.736;23.346;2023-07-31T04:27:02;34.73;;;28.90;;
20623;SDS011;10471;42.736;23.346;2023-07-31T04:29:28;38.30;;;30.00;;
20623;SDS011;10471;42.736;23.346;2023-07-31T04:31:53;38.30;;;31.07;;
20623;SDS011;10471;42.736;23.346;2023-07-31T04:34:18;36.10;;;28.80;;
20623;SDS011;10471;42.736;23.346;2023-07-31T04:36:44;37.97;;;30.70;;
20623;SDS011;10471;42.736;23.346;2023-07-31T04:39:09;39.00;;;32.27;;
20623;SDS011;10471;42.736;23.346;2023-07-31T04:41:34;37.93;;;30.73;;
20623;SDS011;10471;42.736;23.346;2023-07-31T04:44:00;36.13;;;29.53;;
20623;SDS011;10471;42.736;23.346;2023-07-31T04:46:26;41.13;;;31.37;;
20623;SDS011;10471;42.736;23.346;2023-07-31T04:48:51;38.13;;;30.87;;
20623;SDS011;10471;42.736;23.346;2023-07-31T04:51:17;37.53;;;30.97;;
20623;SDS011;10471;42.736;23.346;2023-07-31T04:53:42;36.23;;;30.63;;
20623;SDS011;10471;42.736;23.346;2023-07-31T04:56:07;37.80;;;30.10;;
20623;SDS011;10471;42.736;23.346;2023-07-31T04:58:33;36.80;;;30.90;;
20623;SDS011;10471;42.736;23.346;2023-07-31T05:00:58;34.60;;;29.60;;
20623;SDS011;10471;42.736;23.346;2023-07-31T05:03:24;34.87;;;28.83;;
20623;SDS011;10471;42.736;23.346;2023-07-31T05:05:49;36.20;;;29.27;;
20623;SDS011;10471;42.736;23.346;2023-07-31T05:08:15;37.23;;;28.40;;
20623;SDS011;10471;42.736;23.346;2023-07-31T05:10:42;37.47;;;29.63;;
20623;SDS011;10471;42.736;23.346;2023-07-31T05:13:08;34.67;;;27.50;;
20623;SDS011;10471;42.736;23.346;2023-07-31T05:15:33;31.60;;;25.57;;
20623;SDS011;10471;42.736;23.346;2023-07-31T05:17:58;36.77;;;27.07;;
20623;SDS011;10471;42.736;23.346;2023-07-31T05:20:24;28.43;;;24.03;;
20623;SDS011;10471;42.736;23.346;2023-07-31T05:22:50;28.23;;;24.33;;
20623;SDS011;10471;42.736;23.346;2023-07-31T05:25:15;27.03;;;24.20;;
20623;SDS011;10471;42.736;23.346;2023-07-31T05:27:41;26.10;;;23.27;;
20623;SDS011;10471;42.736;23.346;2023-07-31T05:30:06;25.80;;;23.00;;
20623;SDS011;10471;42.736;23.346;2023-07-31T05:32:32;28.07;;;21.30;;
20623;SDS011;10471;42.736;23.346;2023-07-31T05:34:58;23.63;;;20.43;;
20623;SDS011;10471;42.736;23.346;2023-07-31T05:37:23;23.67;;;19.33;;
20623;SDS011;10471;42.736;23.346;2023-07-31T05:39:48;20.60;;;18.60;;
20623;SDS011;10471;42.736;23.346;2023-07-31T05:42:14;20.03;;;17.13;;
20623;SDS011;10471;42.736;23.346;2023-07-31T05:44:39;23.60;;;17.77;;
20623;SDS011;10471;42.736;23.346;2023-07-31T05:47:05;16.43;;;14.67;;
20623;SDS011;10471;42.736;23.346;2023-07-31T05:49:30;17.83;;;15.20;;
20623;SDS011;10471;42.736;23.346;2023-07-31T05:51:55;16.47;;;13.87;;
20623;SDS011;10471;42.736;23.346;2023-07-31T05:54:21;16.10;;;14.33;;
20623;SDS011;10471;42.736;23.346;2023-07-31T05:56:46;16.97;;;14.33;;
20623;SDS011;10471;42.736;23.346;2023-07-31T05:59:12;15.83;;;14.23;;
20623;SDS011;10471;42.736;23.346;2023-07-31T06:01:38;16.20;;;13.97;;
20623;SDS011;10471;42.736;23.346;2023-07-31T06:04:03;16.93;;;13.77;;
20623;SDS011;10471;42.736;23.346;2023-07-31T06:06:29;14.17;;;12.40;;
20623;SDS011;10471;42.736;23.346;2023-07-31T06:08:54;16.63;;;12.60;;
20623;SDS011;10471;42.736;23.346;2023-07-31T06:11:20;13.47;;;12.10;;
20623;SDS011;10471;42.736;23.346;2023-07-31T06:13:46;13.53;;;12.03;;
20623;SDS011;10471;42.736;23.346;2023-07-31T06:16:13;16.13;;;11.40;;
20623;SDS011;10471;42.736;23.346;2023-07-31T06:18:39;12.50;;;11.10;;
20623;SDS011;10471;42.736;23.346;2023-07-31T06:21:04;12.63;;;10.57;;
20623;SDS011;10471;42.736;23.346;2023-07-31T06:23:29;12.83;;;11.47;;
20623;SDS011;10471;42.736;23.346;2023-07-31T06:25:55;13.03;;;11.73;;
20623;SDS011;10471;42.736;23.346;2023-07-31T06:28:20;12.53;;;10.50;;
20623;SDS011;10471;42.736;23.346;2023-07-31T06:30:45;16.20;;;10.37;;
20623;SDS011;10471;42.736;23.346;2023-07-31T06:33:11;10.57;;;9.20;;
20623;SDS011;10471;42.736;23.346;2023-07-31T06:35:36;10.87;;;9.03;;
20623;SDS011;10471;42.736;23.346;2023-07-31T06:38:02;10.27;;;8.70;;
20623;SDS011;10471;42.736;23.346;2023-07-31T06:40:27;10.47;;;8.30;;
20623;SDS011;10471;42.736;23.346;2023-07-31T06:42:53;10.27;;;8.73;;
20623;SDS011;10471;42.736;23.346;2023-07-31T06:45:19;8.40;;;7.60;;
20623;SDS011;10471;42.736;23.346;2023-07-31T06:47:44;8.43;;;7.40;;
20623;SDS011;10471;42.736;23.346;2023-07-31T06:50:09;13.73;;;7.97;;
20623;SDS011;10471;42.736;23.346;2023-07-31T06:52:35;9.50;;;7.37;;
20623;SDS011;10471;42.736;23.346;2023-07-31T06:55:02;8.30;;;7.40;;
20623;SDS011;10471;42.736;23.346;2023-07-31T06:57:28;9.40;;;7.33;;
20623;SDS011;10471;42.736;23.346;2023-07-31T06:59:54;8.80;;;7.67;;
20623;SDS011;10471;42.736;23.346;2023-07-31T07:02:20;8.60;;;7.70;;
20623;SDS011;10471;42.736;23.346;2023-07-31T07:04:45;8.73;;;7.40;;
20623;SDS011;10471;42.736;23.346;2023-07-31T07:07:11;9.70;;;7.80;;
20623;SDS011;10471;42.736;23.346;2023-07-31T07:09:36;10.83;;;7.20;;
20623;SDS011;10471;42.736;23.346;2023-07-31T07:12:02;9.87;;;6.50;;
20623;SDS011;10471;42.736;23.346;2023-07-31T07:14:27;11.13;;;6.83;;
20623;SDS011;10471;42.736;23.346;2023-07-31T07:16:52;11.20;;;7.10;;
20623;SDS011;10471;42.736;23.346;2023-07-31T07:19:18;8.83;;;6.67;;
20623;SDS011;10471;42.736;23.346;2023-07-31T07:21:43;8.33;;;7.23;;
20623;SDS011;10471;42.736;23.346;2023-07-31T07:24:08;7.00;;;6.30;;
20623;SDS011;10471;42.736;23.346;2023-07-31T07:26:34;7.57;;;5.93;;
20623;SDS011;10471;42.736;23.346;2023-07-31T07:28:59;7.30;;;6.20;;
20623;SDS011;10471;42.736;23.346;2023-07-31T07:31:27;8.27;;;6.20;;
20623;SDS011;10471;42.736;23.346;2023-07-31T07:33:52;8.00;;;6.33;;
20623;SDS011;10471;42.736;23.346;2023-07-31T07:36:18;8.53;;;6.07;;
20623;SDS011;10471;42.736;23.346;2023-07-31T07:38:43;8.70;;;5.73;;
20623;SDS011;10471;42.736;23.346;2023-07-31T07:41:08;8.07;;;6.13;;
20623;SDS011;10471;42.736;23.346;2023-07-31T07:43:34;7.13;;;6.07;;
20623;SDS011;10471;42.736;23.346;2023-07-31T07:45:59;7.87;;;6.13;;
20623;SDS011;10471;42.736;23.346;2023-07-31T07:48:25;6.20;;;5.60;;
20623;SDS011;10471;42.736;23.346;2023-07-31T07:50:50;8.13;;;5.73;;
20623;SDS011;10471;42.736;23.346;2023-07-31T07:53:16;7.33;;;5.33;;
20623;SDS011;10471;42.736;23.346;2023-07-31T07:55:41;7.10;;;4.83;;
20623;SDS011;10471;42.736;23.346;2023-07-31T07:58:07;9.33;;;5.37;;
20623;SDS011;10471;42.736;23.346;2023-07-31T08:00:33;7.83;;;5.13;;
20623;SDS011;10471;42.736;23.346;2023-07-31T08:02:58;7.60;;;5.40;;
20623;SDS011;10471;42.736;23.346;2023-07-31T08:05:24;6.23;;;4.47;;
20623;SDS011;10471;42.736;23.346;2023-07-31T08:07:49;5.80;;;5.20;;
20623;SDS011;10471;42.736;23.346;2023-07-31T08:10:15;6.27;;;4.43;;
20623;SDS011;10471;42.736;23.346;2023-07-31T08:12:40;5.20;;;4.63;;
20623;SDS011;10471;42.736;23.346;2023-07-31T08:15:06;9.93;;;5.10;;
20623;SDS011;10471;42.736;23.346;2023-07-31T08:17:31;8.77;;;4.97;;
20623;SDS011;10471;42.736;23.346;2023-07-31T08:19:57;5.80;;;4.63;;
20623;SDS011;10471;42.736;23.346;2023-07-31T08:22:23;6.17;;;4.43;;
20623;SDS011;10471;42.736;23.346;2023-07-31T08:24:50;6.50;;;4.77;;
20623;SDS011;10471;42.736;23.346;2023-07-31T08:27:15;6.03;;;4.57;;
20623;SDS011;10471;42.736;23.346;2023-07-31T08:29:40;7.20;;;4.57;;
20623;SDS011;10471;42.736;23.346;2023-07-31T08:32:06;6.17;;;4.50;;
20623;SDS011;10471;42.736;23.346;2023-07-31T08:34:31;8.53;;;4.30;;
20623;SDS011;10471;42.736;23.346;2023-07-31T08:36:57;8.33;;;4.13;;
20623;SDS011;10471;42.736;23.346;2023-07-31T08:39:22;5.20;;;4.70;;
20623;SDS011;10471;42.736;23.346;2023-07-31T08:41:47;6.23;;;4.70;;
20623;SDS011;10471;42.736;23.346;2023-07-31T08:44:13;8.97;;;5.17;;
20623;SDS011;10471;42.736;23.346;2023-07-31T08:46:40;7.03;;;5.13;;
20623;SDS011;10471;42.736;23.346;2023-07-31T08:49:06;6.27;;;4.40;;
20623;SDS011;10471;42.736;23.346;2023-07-31T08:51:35;7.57;;;4.50;;
20623;SDS011;10471;42.736;23.346;2023-07-31T08:54:02;6.33;;;5.10;;
20623;SDS011;10471;42.736;23.346;2023-07-31T08:56:31;9.60;;;5.20;;
20623;SDS011;10471;42.736;23.346;2023-07-31T08:58:57;7.73;;;5.33;;
20623;SDS011;10471;42.736;23.346;2023-07-31T09:01:24;5.50;;;4.70;;
20623;SDS011;10471;42.736;23.346;2023-07-31T09:03:50;5.13;;;4.50;;
20623;SDS011;10471;42.736;23.346;2023-07-31T09:06:17;5.40;;;3.90;;
20623;SDS011;10471;42.736;23.346;2023-07-31T09:08:45;4.37;;;3.97;;
20623;SDS011;10471;42.736;23.346;2023-07-31T09:11:13;5.77;;;4.47;;
20623;SDS011;10471;42.736;23.346;2023-07-31T09:13:39;5.90;;;4.33;;
20623;SDS011;10471;42.736;23.346;2023-07-31T09:16:05;6.93;;;4.53;;
20623;SDS011;10471;42.736;23.346;2023-07-31T09:18:30;6.70;;;4.20;;
20623;SDS011;10471;42.736;23.346;2023-07-31T09:21:05;5.57;;;4.70;;
20623;SDS011;10471;42.736;23.346;2023-07-31T09:23:44;5.03;;;4.33;;
20623;SDS011;10471;42.736;23.346;2023-07-31T09:26:34;4.57;;;4.10;;
20623;SDS011;10471;42.736;23.346;2023-07-31T09:29:04;5.40;;;3.83;;
20623;SDS011;10471;42.736;23.346;2023-07-31T09:34:06;3.73;;;3.40;;
20623;SDS011;10471;42.736;23.346;2023-07-31T09:36:31;3.53;;;3.20;;
20623;SDS011;10471;42.736;23.346;2023-07-31T09:39:03;4.77;;;3.53;;
20623;SDS011;10471;42.736;23.346;2023-07-31T09:41:29;5.23;;;3.30;;
20623;SDS011;10471;42.736;23.346;2023-07-31T09:43:55;3.57;;;3.10;;
20623;SDS011;10471;42.736;23.346;2023-07-31T09:46:21;3.63;;;3.33;;
20623;SDS011;10471;42.736;23.346;2023-07-31T09:48:46;4.13;;;2.97;;
20623;SDS011;10471;42.736;23.346;2023-07-31T09:51:12;3.73;;;3.00;;
20623;SDS011;10471;42.736;23.346;2023-07-31T09:53:40;3.63;;;3.03;;
20623;SDS011;10471;42.736;23.346;2023-07-31T09:56:05;4.97;;;3.10;;
20623;SDS011;10471;42.736;23.346;2023-07-31T09:58:31;4.90;;;2.90;;
20623;SDS011;10471;42.736;23.346;2023-07-31T10:01:00;4.63;;;3.10;;
20623;SDS011;10471;42.736;23.346;2023-07-31T10:03:27;2.70;;;2.37;;
20623;SDS011;10471;42.736;23.346;2023-07-31T10:05:55;4.13;;;2.87;;
20623;SDS011;10471;42.736;23.346;2023-07-31T10:08:23;3.33;;;3.00;;
20623;SDS011;10471;42.736;23.346;2023-07-31T10:10:54;3.33;;;2.77;;
20623;SDS011;10471;42.736;23.346;2023-07-31T10:13:24;3.23;;;2.93;;
20623;SDS011;10471;42.736;23.346;2023-07-31T10:15:50;4.77;;;2.67;;
20623;SDS011;10471;42.736;23.346;2023-07-31T10:18:16;3.70;;;2.80;;
20623;SDS011;10471;42.736;23.346;2023-07-31T10:20:43;3.73;;;2.70;;
20623;SDS011;10471;42.736;23.346;2023-07-31T10:23:09;3.00;;;2.60;;
20623;SDS011;10471;42.736;23.346;2023-07-31T10:25:35;4.13;;;2.83;;
20623;SDS011;10471;42.736;23.346;2023-07-31T10:28:02;2.67;;;2.20;;
20623;SDS011;10471;42.736;23.346;2023-07-31T10:30:28;4.07;;;2.80;;
20623;SDS011;10471;42.736;23.346;2023-07-31T10:32:55;6.20;;;2.83;;
20623;SDS011;10471;42.736;23.346;2023-07-31T10:35:22;4.93;;;2.87;;
20623;SDS011;10471;42.736;23.346;2023-07-31T10:37:48;3.70;;;2.37;;
20623;SDS011;10471;42.736;23.346;2023-07-31T10:40:17;2.70;;;2.33;;
20623;SDS011;10471;42.736;23.346;2023-07-31T10:48:02;4.27;;;2.87;;
20623;SDS011;10471;42.736;23.346;2023-07-31T10:50:30;3.93;;;2.73;;
20623;SDS011;10471;42.736;23.346;2023-07-31T10:52:59;2.43;;;2.23;;
20623;SDS011;10471;42.736;23.346;2023-07-31T10:55:32;3.90;;;2.60;;
20623;SDS011;10471;42.736;23.346;2023-07-31T10:58:12;4.67;;;2.80;;
20623;SDS011;10471;42.736;23.346;2023-07-31T11:00:41;6.13;;;2.70;;
20623;SDS011;10471;42.736;23.346;2023-07-31T11:08:13;4.67;;;2.40;;
20623;SDS011;10471;42.736;23.346;2023-07-31T11:10:40;4.17;;;2.20;;
20623;SDS011;10471;42.736;23.346;2023-07-31T11:13:06;5.17;;;2.47;;
20623;SDS011;10471;42.736;23.346;2023-07-31T11:15:32;4.17;;;2.70;;
20623;SDS011;10471;42.736;23.346;2023-07-31T11:17:59;3.03;;;2.50;;
20623;SDS011;10471;42.736;23.346;2023-07-31T11:20:27;3.17;;;2.40;;
20623;SDS011;10471;42.736;23.346;2023-07-31T11:22:57;4.27;;;2.40;;
20623;SDS011;10471;42.736;23.346;2023-07-31T11:25:28;4.50;;;2.20;;
20623;SDS011;10471;42.736;23.346;2023-07-31T11:27:55;3.40;;;2.60;;
20623;SDS011;10471;42.736;23.346;2023-07-31T11:30:21;4.00;;;2.50;;
20623;SDS011;10471;42.736;23.346;2023-07-31T11:32:47;3.33;;;2.23;;
20623;SDS011;10471;42.736;23.346;2023-07-31T11:35:12;3.27;;;2.60;;
20623;SDS011;10471;42.736;23.346;2023-07-31T11:37:41;4.03;;;3.00;;
20623;SDS011;10471;42.736;23.346;2023-07-31T11:40:07;5.67;;;3.33;;
20623;SDS011;10471;42.736;23.346;2023-07-31T11:42:34;4.60;;;2.90;;
20623;SDS011;10471;42.736;23.346;2023-07-31T11:45:04;3.73;;;3.10;;
20623;SDS011;10471;42.736;23.346;2023-07-31T11:47:30;5.00;;;3.07;;
20623;SDS011;10471;42.736;23.346;2023-07-31T11:49:59;3.33;;;2.90;;
20623;SDS011;10471;42.736;23.346;2023-07-31T11:52:25;5.43;;;3.03;;
20623;SDS011;10471;42.736;23.346;2023-07-31T11:54:51;4.57;;;3.13;;
20623;SDS011;10471;42.736;23.346;2023-07-31T11:57:16;5.43;;;3.10;;
20623;SDS011;10471;42.736;23.346;2023-07-31T11:59:44;3.27;;;2.97;;
20623;SDS011;10471;42.736;23.346;2023-07-31T12:02:09;3.63;;;3.03;;
20623;SDS011;10471;42.736;23.346;2023-07-31T12:04:35;5.50;;;3.23;;
20623;SDS011;10471;42.736;23.346;2023-07-31T12:07:01;6.73;;;3.40;;
20623;SDS011;10471;42.736;23.346;2023-07-31T12:09:26;3.83;;;3.10;;
20623;SDS011;10471;42.736;23.346;2023-07-31T12:11:51;6.47;;;5.87;;
20623;SDS011;10471;42.736;23.346;2023-07-31T12:14:20;6.97;;;6.37;;
20623;SDS011;10471;42.736;23.346;2023-07-31T12:16:47;6.90;;;6.20;;
20623;SDS011;10471;42.736;23.346;2023-07-31T12:19:12;6.83;;;6.23;;
20623;SDS011;10471;42.736;23.346;2023-07-31T12:21:38;7.90;;;6.73;;
20623;SDS011;10471;42.736;23.346;2023-07-31T12:24:03;8.37;;;6.10;;
20623;SDS011;10471;42.736;23.346;2023-07-31T12:26:38;8.60;;;5.90;;
20623;SDS011;10471;42.736;23.346;2023-07-31T12:29:05;9.97;;;6.80;;
20623;SDS011;10471;42.736;23.346;2023-07-31T12:31:33;9.03;;;6.43;;
20623;SDS011;10471;42.736;23.346;2023-07-31T12:33:59;7.13;;;6.43;;
20623;SDS011;10471;42.736;23.346;2023-07-31T12:36:24;8.30;;;6.47;;
20623;SDS011;10471;42.736;23.346;2023-07-31T12:38:50;7.97;;;6.47;;
20623;SDS011;10471;42.736;23.346;2023-07-31T12:41:16;7.30;;;6.60;;
20623;SDS011;10471;42.736;23.346;2023-07-31T12:43:43;7.17;;;6.47;;
20623;SDS011;10471;42.736;23.346;2023-07-31T12:46:09;6.83;;;6.23;;
20623;SDS011;10471;42.736;23.346;2023-07-31T12:48:35;7.60;;;6.83;;
20623;SDS011;10471;42.736;23.346;2023-07-31T12:51:02;7.47;;;6.83;;
20623;SDS011;10471;42.736;23.346;2023-07-31T12:53:28;7.83;;;7.13;;
20623;SDS011;10471;42.736;23.346;2023-07-31T12:55:54;8.57;;;7.73;;
20623;SDS011;10471;42.736;23.346;2023-07-31T12:58:20;7.77;;;6.90;;
20623;SDS011;10471;42.736;23.346;2023-07-31T13:00:45;7.97;;;7.17;;
20623;SDS011;10471;42.736;23.346;2023-07-31T13:03:10;7.80;;;6.63;;
20623;SDS011;10471;42.736;23.346;2023-07-31T13:05:36;8.17;;;6.23;;
20623;SDS011;10471;42.736;23.346;2023-07-31T13:08:01;6.57;;;5.97;;
20623;SDS011;10471;42.736;23.346;2023-07-31T13:10:27;6.77;;;6.10;;
20623;SDS011;10471;42.736;23.346;2023-07-31T13:12:53;6.30;;;5.70;;
20623;SDS011;10471;42.736;23.346;2023-07-31T13:15:19;6.60;;;6.00;;
20623;SDS011;10471;42.736;23.346;2023-07-31T13:17:45;6.40;;;5.90;;
20623;SDS011;10471;42.736;23.346;2023-07-31T13:20:11;8.40;;;6.57;;
20623;SDS011;10471;42.736;23.346;2023-07-31T13:22:36;5.90;;;5.40;;
20623;SDS011;10471;42.736;23.346;2023-07-31T13:25:01;6.23;;;5.73;;
20623;SDS011;10471;42.736;23.346;2023-07-31T13:27:28;7.30;;;5.57;;
20623;SDS011;10471;42.736;23.346;2023-07-31T13:29:53;6.27;;;5.67;;
20623;SDS011;10471;42.736;23.346;2023-07-31T13:32:19;6.10;;;4.97;;
20623;SDS011;10471;42.736;23.346;2023-07-31T13:34:46;6.37;;;5.87;;
20623;SDS011;10471;42.736;23.346;2023-07-31T13:37:12;10.40;;;5.87;;
20623;SDS011;10471;42.736;23.346;2023-07-31T13:39:38;6.13;;;5.53;;
20623;SDS011;10471;42.736;23.346;2023-07-31T13:42:04;8.00;;;5.87;;
20623;SDS011;10471;42.736;23.346;2023-07-31T13:44:36;6.53;;;5.70;;
20623;SDS011;10471;42.736;23.346;2023-07-31T13:47:01;5.77;;;5.30;;
20623;SDS011;10471;42.736;23.346;2023-07-31T13:49:27;5.97;;;5.27;;
20623;SDS011;10471;42.736;23.346;2023-07-31T13:51:54;6.07;;;5.57;;
20623;SDS011;10471;42.736;23.346;2023-07-31T13:54:19;6.27;;;5.70;;
20623;SDS011;10471;42.736;23.346;2023-07-31T13:56:44;5.70;;;5.10;;
20623;SDS011;10471;42.736;23.346;2023-07-31T13:59:10;5.83;;;5.30;;
20623;SDS011;10471;42.736;23.346;2023-07-31T14:01:36;6.87;;;5.73;;
20623;SDS011;10471;42.736;23.346;2023-07-31T14:04:01;5.60;;;5.10;;
20623;SDS011;10471;42.736;23.346;2023-07-31T14:06:27;5.43;;;4.93;;
20623;SDS011;10471;42.736;23.346;2023-07-31T14:08:52;6.30;;;5.70;;
20623;SDS011;10471;42.736;23.346;2023-07-31T14:11:18;5.60;;;5.13;;
20623;SDS011;10471;42.736;23.346;2023-07-31T14:13:43;7.03;;;6.33;;
20623;SDS011;10471;42.736;23.346;2023-07-31T14:16:09;6.07;;;5.47;;
20623;SDS011;10471;42.736;23.346;2023-07-31T14:18:34;8.57;;;5.70;;
20623;SDS011;10471;42.736;23.346;2023-07-31T14:20:59;9.80;;;6.83;;
20623;SDS011;10471;42.736;23.346;2023-07-31T14:23:25;5.90;;;5.33;;
20623;SDS011;10471;42.736;23.346;2023-07-31T14:25:50;7.43;;;5.40;;
20623;SDS011;10471;42.736;23.346;2023-07-31T14:28:16;8.03;;;4.97;;
20623;SDS011;10471;42.736;23.346;2023-07-31T14:30:41;5.03;;;4.63;;
20623;SDS011;10471;42.736;23.346;2023-07-31T14:33:06;5.27;;;4.77;;
20623;SDS011;10471;42.736;23.346;2023-07-31T14:35:32;5.07;;;4.47;;